sensor_id;sensor_type;location;lat;lon;timestamp;temperature;humidity
47757;SHT35;22147;52.388;13.390;2023-03-01T00:02:28;-3.38;85.03
47757;SHT35;22147;52.388;13.390;2023-03-01T00:04:58;-3.38;85.02
47757;SHT35;22147;52.388;13.390;2023-03-01T00:07:28;-3.41;85.16
47757;SHT35;22147;52.388;13.390;2023-03-01T00:09:58;-3.40;85.36
47757;SHT35;22147;52.388;13.390;2023-03-01T00:12:29;-3.41;85.80
47757;SHT35;22147;52.388;13.390;2023-03-01T00:14:59;-3.38;86.00
47757;SHT35;22147;52.388;13.390;2023-03-01T00:17:29;-3.41;85.87
47757;SHT35;22147;52.388;13.390;2023-03-01T00:19:59;-3.47;85.84
47757;SHT35;22147;52.388;13.390;2023-03-01T00:22:29;-3.50;85.89
47757;SHT35;22147;52.388;13.390;2023-03-01T00:24:59;-3.51;85.98
47757;SHT35;22147;52.388;13.390;2023-03-01T00:27:29;-3.55;85.94
47757;SHT35;22147;52.388;13.390;2023-03-01T00:29:59;-3.56;85.98
47757;SHT35;22147;52.388;13.390;2023-03-01T00:32:29;-3.61;86.03
47757;SHT35;22147;52.388;13.390;2023-03-01T00:34:59;-3.61;86.21
47757;SHT35;22147;52.388;13.390;2023-03-01T00:37:29;-3.61;86.16
47757;SHT35;22147;52.388;13.390;2023-03-01T00:39:59;-3.66;86.17
47757;SHT35;22147;52.388;13.390;2023-03-01T00:42:29;-3.66;86.18
47757;SHT35;22147;52.388;13.390;2023-03-01T00:44:59;-3.72;86.13
47757;SHT35;22147;52.388;13.390;2023-03-01T00:47:30;-3.72;86.27
47757;SHT35;22147;52.388;13.390;2023-03-01T00:50:00;-3.75;86.31
47757;SHT35;22147;52.388;13.390;2023-03-01T00:52:30;-3.76;86.41
47757;SHT35;22147;52.388;13.390;2023-03-01T00:55:00;-3.74;86.51
47757;SHT35;22147;52.388;13.390;2023-03-01T00:57:30;-3.78;86.48
47757;SHT35;22147;52.388;13.390;2023-03-01T01:00:01;-3.81;86.57
47757;SHT35;22147;52.388;13.390;2023-03-01T01:02:34;-3.79;86.84
47757;SHT35;22147;52.388;13.390;2023-03-01T01:05:04;-3.83;87.00
47757;SHT35;22147;52.388;13.390;2023-03-01T01:07:34;-3.89;86.96
47757;SHT35;22147;52.388;13.390;2023-03-01T01:10:03;-3.89;86.92
47757;SHT35;22147;52.388;13.390;2023-03-01T01:12:32;-3.92;86.86
47757;SHT35;22147;52.388;13.390;2023-03-01T01:15:03;-3.92;86.89
47757;SHT35;22147;52.388;13.390;2023-03-01T01:17:33;-3.92;87.05
47757;SHT35;22147;52.388;13.390;2023-03-01T01:20:03;-3.93;87.12
47757;SHT35;22147;52.388;13.390;2023-03-01T01:22:34;-3.93;87.10
47757;SHT35;22147;52.388;13.390;2023-03-01T01:25:04;-3.96;87.02
47757;SHT35;22147;52.388;13.390;2023-03-01T01:27:35;-3.97;86.97
47757;SHT35;22147;52.388;13.390;2023-03-01T01:30:06;-3.97;86.93
47757;SHT35;22147;52.388;13.390;2023-03-01T01:32:33;-3.99;86.91
47757;SHT35;22147;52.388;13.390;2023-03-01T01:35:05;-3.99;86.94
47757;SHT35;22147;52.388;13.390;2023-03-01T01:37:35;-4.00;86.99
47757;SHT35;22147;52.388;13.390;2023-03-01T01:40:06;-3.99;87.00
47757;SHT35;22147;52.388;13.390;2023-03-01T01:42:36;-3.99;87.02
47757;SHT35;22147;52.388;13.390;2023-03-01T01:45:34;-4.02;87.10
47757;SHT35;22147;52.388;13.390;2023-03-01T01:48:15;-4.00;87.10
47757;SHT35;22147;52.388;13.390;2023-03-01T01:50:59;-3.97;87.16
47757;SHT35;22147;52.388;13.390;2023-03-01T01:53:30;-3.97;87.16
47757;SHT35;22147;52.388;13.390;2023-03-01T01:56:07;-4.02;87.21
47757;SHT35;22147;52.388;13.390;2023-03-01T01:58:42;-4.03;87.34
47757;SHT35;22147;52.388;13.390;2023-03-01T02:01:13;-4.04;87.39
47757;SHT35;22147;52.388;13.390;2023-03-01T02:03:48;-4.09;87.31
47757;SHT35;22147;52.388;13.390;2023-03-01T02:06:47;-4.06;87.28
47757;SHT35;22147;52.388;13.390;2023-03-01T02:09:24;-4.11;87.22
47757;SHT35;22147;52.388;13.390;2023-03-01T02:11:55;-4.11;87.19
47757;SHT35;22147;52.388;13.390;2023-03-01T02:14:25;-4.17;87.06
47757;SHT35;22147;52.388;13.390;2023-03-01T02:16:56;-4.17;87.16
47757;SHT35;22147;52.388;13.390;2023-03-01T02:22:43;-4.18;87.21
47757;SHT35;22147;52.388;13.390;2023-03-01T02:30:50;-4.24;86.97
47757;SHT35;22147;52.388;13.390;2023-03-01T02:33:41;-4.27;86.97
47757;SHT35;22147;52.388;13.390;2023-03-01T02:36:21;-4.27;86.97
47757;SHT35;22147;52.388;13.390;2023-03-01T02:38:59;-4.28;86.92
47757;SHT35;22147;52.388;13.390;2023-03-01T02:41:37;-4.30;86.88
47757;SHT35;22147;52.388;13.390;2023-03-01T02:44:05;-4.33;86.87
47757;SHT35;22147;52.388;13.390;2023-03-01T02:46:52;-4.34;86.81
47757;SHT35;22147;52.388;13.390;2023-03-01T02:55:14;-4.43;86.78
47757;SHT35;22147;52.388;13.390;2023-03-01T02:57:48;-4.44;86.75
47757;SHT35;22147;52.388;13.390;2023-03-01T03:00:41;-4.43;86.75
47757;SHT35;22147;52.388;13.390;2023-03-01T03:03:20;-4.45;86.75
47757;SHT35;22147;52.388;13.390;2023-03-01T03:05:51;-4.45;86.75
47757;SHT35;22147;52.388;13.390;2023-03-01T03:08:21;-4.48;86.69
47757;SHT35;22147;52.388;13.390;2023-03-01T03:10:54;-4.47;86.76
47757;SHT35;22147;52.388;13.390;2023-03-01T03:13:24;-4.50;86.87
47757;SHT35;22147;52.388;13.390;2023-03-01T03:15:58;-4.48;86.86
47757;SHT35;22147;52.388;13.390;2023-03-01T03:18:28;-4.53;86.92
47757;SHT35;22147;52.388;13.390;2023-03-01T03:20:59;-4.55;86.97
47757;SHT35;22147;52.388;13.390;2023-03-01T03:23:28;-4.54;87.02
47757;SHT35;22147;52.388;13.390;2023-03-01T03:25:59;-4.57;87.09
47757;SHT35;22147;52.388;13.390;2023-03-01T03:28:32;-4.60;87.08
47757;SHT35;22147;52.388;13.390;2023-03-01T03:31:07;-4.61;87.07
47757;SHT35;22147;52.388;13.390;2023-03-01T03:33:37;-4.62;87.10
47757;SHT35;22147;52.388;13.390;2023-03-01T03:36:08;-4.66;87.13
47757;SHT35;22147;52.388;13.390;2023-03-01T03:38:43;-4.66;87.14
47757;SHT35;22147;52.388;13.390;2023-03-01T03:41:13;-4.66;87.13
47757;SHT35;22147;52.388;13.390;2023-03-01T03:43:44;-4.66;87.10
47757;SHT35;22147;52.388;13.390;2023-03-01T03:46:14;-4.71;87.07
47757;SHT35;22147;52.388;13.390;2023-03-01T03:48:46;-4.72;87.03
47757;SHT35;22147;52.388;13.390;2023-03-01T03:51:17;-4.71;87.01
47757;SHT35;22147;52.388;13.390;2023-03-01T03:53:47;-4.75;87.02
47757;SHT35;22147;52.388;13.390;2023-03-01T03:56:15;-4.74;87.06
47757;SHT35;22147;52.388;13.390;2023-03-01T03:58:45;-4.75;87.20
47757;SHT35;22147;52.388;13.390;2023-03-01T04:01:15;-4.76;87.21
47757;SHT35;22147;52.388;13.390;2023-03-01T04:03:45;-4.78;87.33
47757;SHT35;22147;52.388;13.390;2023-03-01T04:06:16;-4.79;87.49
47757;SHT35;22147;52.388;13.390;2023-03-01T04:08:46;-4.81;87.75
47757;SHT35;22147;52.388;13.390;2023-03-01T04:11:16;-4.79;88.02
47757;SHT35;22147;52.388;13.390;2023-03-01T04:13:58;-4.81;88.15
47757;SHT35;22147;52.388;13.390;2023-03-01T04:16:28;-4.79;88.14
47757;SHT35;22147;52.388;13.390;2023-03-01T04:18:59;-4.81;88.08
47757;SHT35;22147;52.388;13.390;2023-03-01T04:21:30;-4.85;88.03
47757;SHT35;22147;52.388;13.390;2023-03-01T04:24:00;-4.86;88.05
47757;SHT35;22147;52.388;13.390;2023-03-01T04:26:29;-4.86;88.05
47757;SHT35;22147;52.388;13.390;2023-03-01T04:29:00;-4.88;88.03
47757;SHT35;22147;52.388;13.390;2023-03-01T04:31:29;-4.95;88.09
47757;SHT35;22147;52.388;13.390;2023-03-01T04:33:59;-4.96;88.18
47757;SHT35;22147;52.388;13.390;2023-03-01T04:36:29;-5.00;88.16
47757;SHT35;22147;52.388;13.390;2023-03-01T04:39:00;-5.03;88.28
47757;SHT35;22147;52.388;13.390;2023-03-01T04:41:42;-5.02;88.32
47757;SHT35;22147;52.388;13.390;2023-03-01T04:44:13;-5.04;88.29
47757;SHT35;22147;52.388;13.390;2023-03-01T04:46:42;-5.04;88.25
47757;SHT35;22147;52.388;13.390;2023-03-01T04:49:10;-5.07;88.20
47757;SHT35;22147;52.388;13.390;2023-03-01T04:51:38;-5.04;88.17
47757;SHT35;22147;52.388;13.390;2023-03-01T04:54:07;-5.12;88.17
47757;SHT35;22147;52.388;13.390;2023-03-01T04:56:35;-5.10;88.21
47757;SHT35;22147;52.388;13.390;2023-03-01T04:59:04;-5.13;88.23
47757;SHT35;22147;52.388;13.390;2023-03-01T05:01:35;-5.16;88.34
47757;SHT35;22147;52.388;13.390;2023-03-01T05:04:06;-5.16;88.52
47757;SHT35;22147;52.388;13.390;2023-03-01T05:06:35;-5.14;88.63
47757;SHT35;22147;52.388;13.390;2023-03-01T05:09:06;-5.13;88.65
47757;SHT35;22147;52.388;13.390;2023-03-01T05:11:35;-5.19;88.59
47757;SHT35;22147;52.388;13.390;2023-03-01T05:14:08;-5.19;88.59
47757;SHT35;22147;52.388;13.390;2023-03-01T05:16:38;-5.23;88.48
47757;SHT35;22147;52.388;13.390;2023-03-01T05:19:08;-5.20;88.46
47757;SHT35;22147;52.388;13.390;2023-03-01T05:21:45;-5.26;88.31
47757;SHT35;22147;52.388;13.390;2023-03-01T05:24:35;-5.30;88.28
47757;SHT35;22147;52.388;13.390;2023-03-01T05:27:05;-5.31;88.29
47757;SHT35;22147;52.388;13.390;2023-03-01T05:29:33;-5.28;88.32
47757;SHT35;22147;52.388;13.390;2023-03-01T05:32:02;-5.30;88.34
47757;SHT35;22147;52.388;13.390;2023-03-01T05:34:35;-5.28;88.31
47757;SHT35;22147;52.388;13.390;2023-03-01T05:37:05;-5.30;88.25
47757;SHT35;22147;52.388;13.390;2023-03-01T05:39:37;-5.27;88.16
47757;SHT35;22147;52.388;13.390;2023-03-01T05:42:12;-5.30;88.10
47757;SHT35;22147;52.388;13.390;2023-03-01T05:44:43;-5.31;88.07
47757;SHT35;22147;52.388;13.390;2023-03-01T05:47:13;-5.31;88.04
47757;SHT35;22147;52.388;13.390;2023-03-01T05:49:43;-5.30;87.97
47757;SHT35;22147;52.388;13.390;2023-03-01T05:52:12;-5.34;87.89
47757;SHT35;22147;52.388;13.390;2023-03-01T05:54:42;-5.33;87.86
47757;SHT35;22147;52.388;13.390;2023-03-01T05:57:12;-5.33;87.80
47757;SHT35;22147;52.388;13.390;2023-03-01T05:59:42;-5.34;87.82
47757;SHT35;22147;52.388;13.390;2023-03-01T06:02:11;-5.33;87.80
47757;SHT35;22147;52.388;13.390;2023-03-01T06:04:41;-5.30;87.75
47757;SHT35;22147;52.388;13.390;2023-03-01T06:07:11;-5.30;87.69
47757;SHT35;22147;52.388;13.390;2023-03-01T06:09:41;-5.33;87.68
47757;SHT35;22147;52.388;13.390;2023-03-01T06:12:13;-5.26;87.72
47757;SHT35;22147;52.388;13.390;2023-03-01T06:14:47;-5.23;87.68
47757;SHT35;22147;52.388;13.390;2023-03-01T06:17:17;-5.22;87.60
47757;SHT35;22147;52.388;13.390;2023-03-01T06:19:47;-5.19;87.61
47757;SHT35;22147;52.388;13.390;2023-03-01T06:22:17;-5.14;87.65
47757;SHT35;22147;52.388;13.390;2023-03-01T06:24:47;-5.07;87.70
47757;SHT35;22147;52.388;13.390;2023-03-01T06:27:17;-5.03;87.63
47757;SHT35;22147;52.388;13.390;2023-03-01T06:29:47;-5.02;87.42
47757;SHT35;22147;52.388;13.390;2023-03-01T06:32:17;-4.99;87.29
47757;SHT35;22147;52.388;13.390;2023-03-01T06:34:47;-4.91;87.32
47757;SHT35;22147;52.388;13.390;2023-03-01T06:37:17;-4.83;87.34
47757;SHT35;22147;52.388;13.390;2023-03-01T06:39:47;-4.76;87.37
47757;SHT35;22147;52.388;13.390;2023-03-01T06:42:17;-4.69;87.38
47757;SHT35;22147;52.388;13.390;2023-03-01T06:44:47;-4.62;87.35
47757;SHT35;22147;52.388;13.390;2023-03-01T06:47:16;-4.54;87.28
47757;SHT35;22147;52.388;13.390;2023-03-01T06:49:46;-4.48;87.22
47757;SHT35;22147;52.388;13.390;2023-03-01T06:52:16;-4.40;87.12
47757;SHT35;22147;52.388;13.390;2023-03-01T06:54:46;-4.33;87.14
47757;SHT35;22147;52.388;13.390;2023-03-01T06:57:16;-4.23;87.15
47757;SHT35;22147;52.388;13.390;2023-03-01T06:59:47;-4.13;87.13
47757;SHT35;22147;52.388;13.390;2023-03-01T07:02:18;-4.03;87.12
47757;SHT35;22147;52.388;13.390;2023-03-01T07:04:52;-3.89;87.03
47757;SHT35;22147;52.388;13.390;2023-03-01T07:07:22;-3.79;87.01
47757;SHT35;22147;52.388;13.390;2023-03-01T07:09:52;-3.68;86.92
47757;SHT35;22147;52.388;13.390;2023-03-01T07:12:23;-3.56;86.88
47757;SHT35;22147;52.388;13.390;2023-03-01T07:14:53;-3.44;86.84
47757;SHT35;22147;52.388;13.390;2023-03-01T07:17:23;-3.31;86.83
47757;SHT35;22147;52.388;13.390;2023-03-01T07:19:53;-3.14;86.86
47757;SHT35;22147;52.388;13.390;2023-03-01T07:22:22;-2.95;86.83
47757;SHT35;22147;52.388;13.390;2023-03-01T07:24:51;-2.72;86.90
47757;SHT35;22147;52.388;13.390;2023-03-01T07:27:19;-2.49;86.88
47757;SHT35;22147;52.388;13.390;2023-03-01T07:29:48;-2.26;86.75
47757;SHT35;22147;52.388;13.390;2023-03-01T07:32:16;-1.99;86.57
47757;SHT35;22147;52.388;13.390;2023-03-01T07:34:44;-1.76;85.95
47757;SHT35;22147;52.388;13.390;2023-03-01T07:37:13;-1.51;85.65
47757;SHT35;22147;52.388;13.390;2023-03-01T07:39:41;-1.20;85.18
47757;SHT35;22147;52.388;13.390;2023-03-01T07:42:12;-0.94;84.20
47757;SHT35;22147;52.388;13.390;2023-03-01T07:44:41;-0.69;83.38
47757;SHT35;22147;52.388;13.390;2023-03-01T07:47:09;-0.41;82.92
47757;SHT35;22147;52.388;13.390;2023-03-01T07:49:38;-0.11;82.20
47757;SHT35;22147;52.388;13.390;2023-03-01T07:52:05;0.18;81.69
47757;SHT35;22147;52.388;13.390;2023-03-01T07:54:32;0.51;81.02
47757;SHT35;22147;52.388;13.390;2023-03-01T07:57:01;0.85;80.16
47757;SHT35;22147;52.388;13.390;2023-03-01T07:59:29;1.16;79.00
47757;SHT35;22147;52.388;13.390;2023-03-01T08:01:58;1.51;78.30
47757;SHT35;22147;52.388;13.390;2023-03-01T08:04:26;1.90;77.55
47757;SHT35;22147;52.388;13.390;2023-03-01T08:06:55;2.19;76.54
47757;SHT35;22147;52.388;13.390;2023-03-01T08:09:24;2.56;74.96
47757;SHT35;22147;52.388;13.390;2023-03-01T08:11:51;2.90;73.27
47757;SHT35;22147;52.388;13.390;2023-03-01T08:14:20;3.18;72.58
47757;SHT35;22147;52.388;13.390;2023-03-01T08:16:51;3.56;71.25
47757;SHT35;22147;52.388;13.390;2023-03-01T08:19:21;3.80;69.46
47757;SHT35;22147;52.388;13.390;2023-03-01T08:21:51;4.04;68.99
47757;SHT35;22147;52.388;13.390;2023-03-01T08:24:21;4.28;66.09
47757;SHT35;22147;52.388;13.390;2023-03-01T08:26:52;4.65;65.36
47757;SHT35;22147;52.388;13.390;2023-03-01T08:29:22;4.95;63.45
47757;SHT35;22147;52.388;13.390;2023-03-01T08:31:52;5.05;61.95
47757;SHT35;22147;52.388;13.390;2023-03-01T08:34:25;5.24;59.57
47757;SHT35;22147;52.388;13.390;2023-03-01T08:36:55;5.13;59.38
47757;SHT35;22147;52.388;13.390;2023-03-01T08:39:22;5.18;61.91
47757;SHT35;22147;52.388;13.390;2023-03-01T08:41:53;5.07;58.89
47757;SHT35;22147;52.388;13.390;2023-03-01T08:44:22;5.24;59.67
47757;SHT35;22147;52.388;13.390;2023-03-01T08:46:52;5.41;58.09
47757;SHT35;22147;52.388;13.390;2023-03-01T08:49:24;5.62;61.57
47757;SHT35;22147;52.388;13.390;2023-03-01T08:51:54;6.40;56.46
47757;SHT35;22147;52.388;13.390;2023-03-01T08:54:24;6.62;57.80
47757;SHT35;22147;52.388;13.390;2023-03-01T08:56:54;6.68;52.73
47757;SHT35;22147;52.388;13.390;2023-03-01T08:59:26;6.78;51.02
47757;SHT35;22147;52.388;13.390;2023-03-01T09:01:54;7.17;52.19
47757;SHT35;22147;52.388;13.390;2023-03-01T09:04:24;7.75;50.92
47757;SHT35;22147;52.388;13.390;2023-03-01T09:06:54;7.79;52.38
47757;SHT35;22147;52.388;13.390;2023-03-01T09:09:24;7.93;49.03
47757;SHT35;22147;52.388;13.390;2023-03-01T09:11:54;7.82;48.41
47757;SHT35;22147;52.388;13.390;2023-03-01T09:14:23;7.96;48.30
47757;SHT35;22147;52.388;13.390;2023-03-01T09:16:54;8.13;49.47
47757;SHT35;22147;52.388;13.390;2023-03-01T09:19:24;7.89;51.06
47757;SHT35;22147;52.388;13.390;2023-03-01T09:21:54;8.13;49.52
47757;SHT35;22147;52.388;13.390;2023-03-01T09:24:25;8.45;48.19
47757;SHT35;22147;52.388;13.390;2023-03-01T09:26:56;8.24;46.55
47757;SHT35;22147;52.388;13.390;2023-03-01T09:29:25;8.30;48.20
47757;SHT35;22147;52.388;13.390;2023-03-01T09:31:54;8.19;46.52
47757;SHT35;22147;52.388;13.390;2023-03-01T09:34:26;8.45;47.76
47757;SHT35;22147;52.388;13.390;2023-03-01T09:36:53;8.76;45.19
47757;SHT35;22147;52.388;13.390;2023-03-01T09:39:22;8.95;45.56
47757;SHT35;22147;52.388;13.390;2023-03-01T09:42:02;8.69;47.55
47757;SHT35;22147;52.388;13.390;2023-03-01T09:44:55;8.99;44.56
47757;SHT35;22147;52.388;13.390;2023-03-01T09:47:35;9.08;44.13
47757;SHT35;22147;52.388;13.390;2023-03-01T09:50:20;8.86;45.92
47757;SHT35;22147;52.388;13.390;2023-03-01T09:53:05;9.02;41.47
47757;SHT35;22147;52.388;13.390;2023-03-01T09:55:45;8.85;42.29
47757;SHT35;22147;52.388;13.390;2023-03-01T10:08:27;7.97;48.15
47757;SHT35;22147;52.388;13.390;2023-03-01T10:10:59;8.72;47.35
47757;SHT35;22147;52.388;13.390;2023-03-01T10:17:09;8.69;47.10
47757;SHT35;22147;52.388;13.390;2023-03-01T10:19:46;8.67;44.85
47757;SHT35;22147;52.388;13.390;2023-03-01T10:22:28;8.30;45.80
47757;SHT35;22147;52.388;13.390;2023-03-01T10:25:04;8.36;44.27
47757;SHT35;22147;52.388;13.390;2023-03-01T10:30:37;8.50;48.56
47757;SHT35;22147;52.388;13.390;2023-03-01T10:33:32;9.26;46.81
47757;SHT35;22147;52.388;13.390;2023-03-01T10:36:06;9.51;45.80
47757;SHT35;22147;52.388;13.390;2023-03-01T10:38:57;9.64;43.95
47757;SHT35;22147;52.388;13.390;2023-03-01T10:41:28;9.69;43.64
47757;SHT35;22147;52.388;13.390;2023-03-01T10:43:59;8.95;46.09
47757;SHT35;22147;52.388;13.390;2023-03-01T10:46:37;9.29;45.04
47757;SHT35;22147;52.388;13.390;2023-03-01T10:49:19;8.84;44.37
47757;SHT35;22147;52.388;13.390;2023-03-01T10:51:53;8.99;44.32
47757;SHT35;22147;52.388;13.390;2023-03-01T10:54:32;8.85;44.01
47757;SHT35;22147;52.388;13.390;2023-03-01T10:57:05;7.31;47.95
47757;SHT35;22147;52.388;13.390;2023-03-01T10:59:38;8.23;44.99
47757;SHT35;22147;52.388;13.390;2023-03-01T11:02:29;7.82;45.99
47757;SHT35;22147;52.388;13.390;2023-03-01T11:08:03;8.43;44.44
47757;SHT35;22147;52.388;13.390;2023-03-01T11:10:36;7.86;44.81
47757;SHT35;22147;52.388;13.390;2023-03-01T11:13:19;8.20;45.17
47757;SHT35;22147;52.388;13.390;2023-03-01T11:16:12;8.61;44.44
47757;SHT35;22147;52.388;13.390;2023-03-01T11:18:42;8.61;43.98
47757;SHT35;22147;52.388;13.390;2023-03-01T11:21:17;8.51;45.65
47757;SHT35;22147;52.388;13.390;2023-03-01T11:23:47;8.44;44.46
47757;SHT35;22147;52.388;13.390;2023-03-01T11:26:20;8.91;44.94
47757;SHT35;22147;52.388;13.390;2023-03-01T11:29:05;8.88;41.84
47757;SHT35;22147;52.388;13.390;2023-03-01T11:31:39;9.06;41.83
47757;SHT35;22147;52.388;13.390;2023-03-01T11:35:04;8.91;41.78
47757;SHT35;22147;52.388;13.390;2023-03-01T11:38:21;8.65;42.72
47757;SHT35;22147;52.388;13.390;2023-03-01T11:41:10;8.84;42.06
47757;SHT35;22147;52.388;13.390;2023-03-01T11:44:12;8.78;41.40
47757;SHT35;22147;52.388;13.390;2023-03-01T11:50:46;8.71;39.85
47757;SHT35;22147;52.388;13.390;2023-03-01T12:01:22;8.03;44.22
47757;SHT35;22147;52.388;13.390;2023-03-01T12:04:36;8.05;43.66
47757;SHT35;22147;52.388;13.390;2023-03-01T12:07:39;7.30;44.55
47757;SHT35;22147;52.388;13.390;2023-03-01T12:10:27;7.40;45.07
47757;SHT35;22147;52.388;13.390;2023-03-01T12:22:47;7.75;42.69
47757;SHT35;22147;52.388;13.390;2023-03-01T12:25:58;7.64;42.83
47757;SHT35;22147;52.388;13.390;2023-03-01T12:29:23;8.03;41.13
47757;SHT35;22147;52.388;13.390;2023-03-01T12:35:58;8.57;37.93
47757;SHT35;22147;52.388;13.390;2023-03-01T12:38:49;8.23;39.38
47757;SHT35;22147;52.388;13.390;2023-03-01T12:41:47;8.36;38.65
47757;SHT35;22147;52.388;13.390;2023-03-01T12:50:51;8.22;38.40
47757;SHT35;22147;52.388;13.390;2023-03-01T12:53:42;8.61;36.55
47757;SHT35;22147;52.388;13.390;2023-03-01T12:56:37;8.58;37.69
47757;SHT35;22147;52.388;13.390;2023-03-01T13:05:36;8.55;35.56
47757;SHT35;22147;52.388;13.390;2023-03-01T13:08:38;8.74;35.41
47757;SHT35;22147;52.388;13.390;2023-03-01T13:11:22;8.78;36.90
47757;SHT35;22147;52.388;13.390;2023-03-01T13:16:55;9.12;36.06
47757;SHT35;22147;52.388;13.390;2023-03-01T13:19:29;8.92;37.40
47757;SHT35;22147;52.388;13.390;2023-03-01T13:22:00;8.96;37.92
47757;SHT35;22147;52.388;13.390;2023-03-01T13:24:41;8.50;37.72
47757;SHT35;22147;52.388;13.390;2023-03-01T13:29:59;8.78;37.47
47757;SHT35;22147;52.388;13.390;2023-03-01T13:32:37;8.84;37.75
47757;SHT35;22147;52.388;13.390;2023-03-01T13:37:49;9.48;36.09
47757;SHT35;22147;52.388;13.390;2023-03-01T13:42:53;9.39;35.74
47757;SHT35;22147;52.388;13.390;2023-03-01T13:45:41;9.51;35.48
47757;SHT35;22147;52.388;13.390;2023-03-01T13:48:29;9.85;34.79
47757;SHT35;22147;52.388;13.390;2023-03-01T13:51:08;9.78;33.92
47757;SHT35;22147;52.388;13.390;2023-03-01T13:53:46;9.82;36.23
47757;SHT35;22147;52.388;13.390;2023-03-01T13:56:27;9.54;34.01
47757;SHT35;22147;52.388;13.390;2023-03-01T13:59:14;9.57;33.41
47757;SHT35;22147;52.388;13.390;2023-03-01T14:01:59;10.23;32.77
47757;SHT35;22147;52.388;13.390;2023-03-01T14:04:32;10.53;33.89
47757;SHT35;22147;52.388;13.390;2023-03-01T14:09:46;10.50;31.63
47757;SHT35;22147;52.388;13.390;2023-03-01T14:15:34;10.28;31.13
47757;SHT35;22147;52.388;13.390;2023-03-01T14:18:23;10.29;32.15
47757;SHT35;22147;52.388;13.390;2023-03-01T14:20:54;9.97;33.02
47757;SHT35;22147;52.388;13.390;2023-03-01T14:23:26;10.20;32.32
47757;SHT35;22147;52.388;13.390;2023-03-01T14:25:58;10.52;31.80
47757;SHT35;22147;52.388;13.390;2023-03-01T14:28:32;10.73;32.03
47757;SHT35;22147;52.388;13.390;2023-03-01T14:31:38;11.10;32.18
47757;SHT35;22147;52.388;13.390;2023-03-01T14:34:24;11.07;31.38
47757;SHT35;22147;52.388;13.390;2023-03-01T14:36:54;11.34;29.65
47757;SHT35;22147;52.388;13.390;2023-03-01T14:39:25;11.57;30.03
47757;SHT35;22147;52.388;13.390;2023-03-01T14:41:56;12.10;28.55
47757;SHT35;22147;52.388;13.390;2023-03-01T14:44:34;11.97;28.31
47757;SHT35;22147;52.388;13.390;2023-03-01T14:47:24;12.03;28.84
47757;SHT35;22147;52.388;13.390;2023-03-01T14:50:19;12.35;29.73
47757;SHT35;22147;52.388;13.390;2023-03-01T14:53:01;12.42;28.47
47757;SHT35;22147;52.388;13.390;2023-03-01T14:55:47;12.72;27.47
47757;SHT35;22147;52.388;13.390;2023-03-01T14:58:24;12.00;30.30
47757;SHT35;22147;52.388;13.390;2023-03-01T15:00:59;11.79;29.64
47757;SHT35;22147;52.388;13.390;2023-03-01T15:03:44;11.83;29.15
47757;SHT35;22147;52.388;13.390;2023-03-01T15:06:21;11.46;30.06
47757;SHT35;22147;52.388;13.390;2023-03-01T15:08:55;10.71;32.43
47757;SHT35;22147;52.388;13.390;2023-03-01T15:11:33;10.57;31.80
47757;SHT35;22147;52.388;13.390;2023-03-01T15:14:00;10.64;30.70
47757;SHT35;22147;52.388;13.390;2023-03-01T15:16:38;10.49;31.62
47757;SHT35;22147;52.388;13.390;2023-03-01T15:19:18;10.26;33.03
47757;SHT35;22147;52.388;13.390;2023-03-01T15:21:50;9.46;33.97
47757;SHT35;22147;52.388;13.390;2023-03-01T15:24:26;9.08;36.03
47757;SHT35;22147;52.388;13.390;2023-03-01T15:27:01;8.95;36.03
47757;SHT35;22147;52.388;13.390;2023-03-01T15:29:35;8.98;35.17
47757;SHT35;22147;52.388;13.390;2023-03-01T15:35:42;8.63;36.27
47757;SHT35;22147;52.388;13.390;2023-03-01T15:41:47;8.63;35.72
47757;SHT35;22147;52.388;13.390;2023-03-01T15:44:32;8.55;36.08
47757;SHT35;22147;52.388;13.390;2023-03-01T15:47:35;8.64;34.21
47757;SHT35;22147;52.388;13.390;2023-03-01T15:50:05;8.50;34.99
47757;SHT35;22147;52.388;13.390;2023-03-01T15:52:42;8.12;36.97
47757;SHT35;22147;52.388;13.390;2023-03-01T15:55:26;7.85;36.86
47757;SHT35;22147;52.388;13.390;2023-03-01T15:58:24;7.50;36.44
47757;SHT35;22147;52.388;13.390;2023-03-01T16:00:54;7.27;38.11
47757;SHT35;22147;52.388;13.390;2023-03-01T16:03:29;7.00;39.86
47757;SHT35;22147;52.388;13.390;2023-03-01T16:05:58;6.75;37.88
47757;SHT35;22147;52.388;13.390;2023-03-01T16:08:26;6.58;39.35
47757;SHT35;22147;52.388;13.390;2023-03-01T16:10:56;6.59;39.90
47757;SHT35;22147;52.388;13.390;2023-03-01T16:13:25;6.48;41.95
47757;SHT35;22147;52.388;13.390;2023-03-01T16:15:58;6.37;41.76
47757;SHT35;22147;52.388;13.390;2023-03-01T16:18:27;6.22;43.48
47757;SHT35;22147;52.388;13.390;2023-03-01T16:20:57;6.03;42.90
47757;SHT35;22147;52.388;13.390;2023-03-01T16:23:27;5.89;43.60
47757;SHT35;22147;52.388;13.390;2023-03-01T16:25:59;5.76;43.44
47757;SHT35;22147;52.388;13.390;2023-03-01T16:28:30;5.63;44.15
47757;SHT35;22147;52.388;13.390;2023-03-01T16:30:59;5.51;45.40
47757;SHT35;22147;52.388;13.390;2023-03-01T16:33:30;5.32;46.69
47757;SHT35;22147;52.388;13.390;2023-03-01T16:36:12;5.20;46.78
47757;SHT35;22147;52.388;13.390;2023-03-01T16:38:40;5.05;48.13
47757;SHT35;22147;52.388;13.390;2023-03-01T16:41:17;4.88;49.32
47757;SHT35;22147;52.388;13.390;2023-03-01T16:43:46;4.69;50.16
47757;SHT35;22147;52.388;13.390;2023-03-01T16:46:26;4.52;51.41
47757;SHT35;22147;52.388;13.390;2023-03-01T16:48:57;4.36;51.01
47757;SHT35;22147;52.388;13.390;2023-03-01T16:51:27;4.22;51.81
47757;SHT35;22147;52.388;13.390;2023-03-01T16:54:00;4.08;53.92
47757;SHT35;22147;52.388;13.390;2023-03-01T16:56:30;3.90;52.97
47757;SHT35;22147;52.388;13.390;2023-03-01T16:59:02;3.77;54.22
47757;SHT35;22147;52.388;13.390;2023-03-01T17:01:35;3.66;55.88
47757;SHT35;22147;52.388;13.390;2023-03-01T17:04:12;3.47;55.76
47757;SHT35;22147;52.388;13.390;2023-03-01T17:06:40;3.35;56.63
47757;SHT35;22147;52.388;13.390;2023-03-01T17:09:09;3.23;56.80
47757;SHT35;22147;52.388;13.390;2023-03-01T17:11:38;3.12;58.20
47757;SHT35;22147;52.388;13.390;2023-03-01T17:14:07;3.05;58.92
47757;SHT35;22147;52.388;13.390;2023-03-01T17:16:34;2.95;60.05
47757;SHT35;22147;52.388;13.390;2023-03-01T17:19:03;2.85;61.61
47757;SHT35;22147;52.388;13.390;2023-03-01T17:21:31;2.73;62.31
47757;SHT35;22147;52.388;13.390;2023-03-01T17:24:00;2.65;62.45
47757;SHT35;22147;52.388;13.390;2023-03-01T17:26:29;2.53;62.91
47757;SHT35;22147;52.388;13.390;2023-03-01T17:28:57;2.41;63.66
47757;SHT35;22147;52.388;13.390;2023-03-01T17:31:25;2.32;64.20
47757;SHT35;22147;52.388;13.390;2023-03-01T17:33:53;2.22;64.26
47757;SHT35;22147;52.388;13.390;2023-03-01T17:36:27;2.11;64.83
47757;SHT35;22147;52.388;13.390;2023-03-01T17:38:57;2.02;65.20
47757;SHT35;22147;52.388;13.390;2023-03-01T17:41:27;1.97;65.24
47757;SHT35;22147;52.388;13.390;2023-03-01T17:43:57;1.91;65.49